Time;durP1;ratioP1;P1;durP2;ratioP2;P2;SDS_P1;SDS_P2;PMS_P1;PMS_P2;Temp;Humidity;BMP_temperature;BMP_pressure;BME280_temperature;BME280_humidity;BME280_pressure;Samples;Min_cycle;Max_cycle;Signal;HPM_P1;HPM_P2
2021/12/29 00:00:34;;;;;;;13.32;7.10;;;1.00;99.90;;;;;;5048013;28;19908;-77
2021/12/29 00:03:00;;;;;;;;;;;1.10;99.90;;;;;;5050420;28;20243;-78
2021/12/29 00:05:27;;;;;;;8.82;6.55;;;1.20;99.90;;;;;;5052152;28;19917;-77
2021/12/29 00:07:52;;;;;;;11.02;6.95;;;1.20;99.90;;;;;;5050125;28;20036;-76
2021/12/29 00:10:19;;;;;;;;;;;1.20;99.90;;;;;;5049131;28;20619;-76
2021/12/29 00:12:49;;;;;;;12.45;7.68;;;1.10;99.90;;;;;;5051207;28;19915;-77
2021/12/29 00:15:16;;;;;;;11.98;7.78;;;1.00;99.90;;;;;;5048344;28;20459;-76
2021/12/29 00:17:44;;;;;;;12.88;7.90;;;1.00;99.90;;;;;;5049470;28;20021;-75
2021/12/29 00:20:15;;;;;;;10.10;6.35;;;1.00;99.90;;;;;;5051434;28;20029;-76
2021/12/29 00:22:41;;;;;;;12.23;7.78;;;1.00;99.90;;;;;;5049724;28;20758;-78
2021/12/29 00:25:07;;;;;;;;;;;0.90;99.90;;;;;;5050921;28;20049;-77
2021/12/29 00:27:32;;;;;;;14.23;8.00;;;0.90;99.90;;;;;;5049306;28;20363;-77
2021/12/29 00:29:58;;;;;;;;;;;0.90;99.90;;;;;;5051494;28;20036;-76
2021/12/29 00:32:24;;;;;;;12.50;7.70;;;0.90;99.90;;;;;;5050086;28;20424;-77
2021/12/29 00:34:49;;;;;;;;;;;1.00;99.90;;;;;;5051030;28;20067;-76
2021/12/29 00:37:15;;;;;;;13.52;8.20;;;0.90;99.90;;;;;;5049917;28;20362;-77
2021/12/29 00:39:40;;;;;;;;;;;1.00;99.90;;;;;;5050461;28;20029;-77
2021/12/29 00:42:06;;;;;;;68.38;33.72;;;1.10;99.90;;;;;;5048959;28;19944;-77
2021/12/29 00:44:33;;;;;;;;;;;1.20;99.90;;;;;;5050331;28;20500;-76
2021/12/29 00:46:59;;;;;;;45.50;23.23;;;1.20;99.90;;;;;;5048362;28;19921;-77
2021/12/29 00:49:34;;;;;;;;;;;1.20;99.90;;;;;;5044240;28;20871;-78
2021/12/29 00:52:01;;;;;;;11.05;6.22;;;1.20;99.90;;;;;;5051338;28;20007;-76
2021/12/29 00:54:27;;;;;;;12.55;8.50;;;1.20;99.90;;;;;;5051733;28;20021;-77
2021/12/29 00:56:54;;;;;;;12.68;8.68;;;1.20;99.90;;;;;;5050553;28;20124;-77
2021/12/29 00:59:19;;;;;;;15.50;10.02;;;1.10;99.90;;;;;;5052475;28;20111;-78
2021/12/29 01:01:45;;;;;;;;;;;1.10;99.90;;;;;;5050452;28;20151;-78
2021/12/29 01:04:11;;;;;;;18.52;12.02;;;1.00;99.90;;;;;;5050200;28;19909;-77
2021/12/29 01:06:37;;;;;;;;;;;1.00;99.90;;;;;;5051739;28;20860;-77
2021/12/29 01:09:03;;;;;;;36.03;23.73;;;1.00;99.90;;;;;;5052735;28;19909;-77
2021/12/29 01:11:29;;;;;;;31.35;17.73;;;0.80;99.90;;;;;;5051118;28;20029;-77
2021/12/29 01:13:54;;;;;;;;;;;1.00;99.90;;;;;;5050756;28;20112;-77
2021/12/29 01:19:04;;;;;;;21.58;13.38;;;1.00;99.90;;;;;;5050995;28;20490;-76
2021/12/29 01:21:31;;;;;;;20.92;14.48;;;1.10;99.90;;;;;;5050319;28;20013;-77
2021/12/29 01:23:57;;;;;;;18.30;10.88;;;1.00;99.90;;;;;;5050176;28;20033;-77
2021/12/29 01:26:23;;;;;;;;;;;1.00;99.90;;;;;;5050627;28;20072;-77
2021/12/29 01:28:48;;;;;;;40.40;24.15;;;1.00;99.90;;;;;;5051028;28;19909;-77
2021/12/29 01:31:14;;;;;;;46.75;27.10;;;0.90;99.90;;;;;;5051007;28;20040;-77
2021/12/29 01:33:40;;;;;;;;;;;1.00;99.90;;;;;;5050954;28;20034;-76
2021/12/29 01:36:06;;;;;;;25.98;16.15;;;1.00;99.90;;;;;;5052719;28;19927;-77
2021/12/29 01:38:31;;;;;;;;;;;1.00;99.90;;;;;;5051987;28;20052;-78
2021/12/29 01:40:57;;;;;;;22.00;13.02;;;1.10;99.90;;;;;;5049616;28;19952;-77
2021/12/29 01:43:22;;;;;;;;;;;1.00;99.90;;;;;;5053308;28;20078;-78
2021/12/29 01:45:48;;;;;;;23.60;15.40;;;1.00;99.90;;;;;;5050553;28;20655;-77
2021/12/29 01:48:16;;;;;;;;;;;1.00;99.90;;;;;;5053177;28;20036;-78
2021/12/29 01:50:45;;;;;;;29.33;17.48;;;1.00;99.90;;;;;;5056422;28;19935;-78
2021/12/29 01:53:13;;;;;;;19.20;12.95;;;1.00;99.90;;;;;;5056439;28;20075;-78
2021/12/29 01:55:39;;;;;;;31.35;18.65;;;1.00;99.90;;;;;;5052150;28;20029;-78
2021/12/29 01:58:07;;;;;;;18.58;13.38;;;1.00;99.90;;;;;;5052262;28;20129;-77
2021/12/29 02:00:37;;;;;;;24.15;15.90;;;1.10;99.90;;;;;;5056312;28;20025;-78
2021/12/29 02:03:03;;;;;;;31.15;19.92;;;1.20;99.90;;;;;;5051335;28;20055;-78
2021/12/29 02:05:29;;;;;;;;;;;1.10;99.90;;;;;;5049142;28;20037;-77
2021/12/29 02:07:54;;;;;;;19.42;11.27;;;1.10;99.90;;;;;;5048052;28;19909;-77
2021/12/29 02:10:22;;;;;;;;;;;1.00;99.90;;;;;;5048908;28;20032;-77
2021/12/29 02:12:47;;;;;;;;;;;1.10;99.90;;;;;;5049053;28;20296;-78
2021/12/29 02:15:14;;;;;;;15.93;10.25;;;1.10;99.90;;;;;;5049105;28;19912;-78
2021/12/29 02:17:39;;;;;;;;;;;1.10;99.90;;;;;;5048622;28;20025;-79
2021/12/29 02:20:08;;;;;;;14.40;9.82;;;1.10;99.90;;;;;;5048493;28;19980;-77
2021/12/29 02:22:43;;;;;;;16.02;10.52;;;1.10;99.90;;;;;;5048571;28;20413;-79
2021/12/29 02:27:45;;;;;;;18.00;11.98;;;1.10;99.90;;;;;;5049730;28;20033;-77
2021/12/29 02:30:12;;;;;;;21.13;14.02;;;1.10;99.90;;;;;;5048148;28;20322;-78
2021/12/29 02:32:39;;;;;;;29.30;18.50;;;1.10;99.90;;;;;;5047907;28;20497;-78
2021/12/29 02:35:05;;;;;;;31.38;20.73;;;1.10;99.90;;;;;;5048844;28;20136;-78
2021/12/29 02:37:31;;;;;;;23.85;15.88;;;1.10;99.90;;;;;;5048351;28;20029;-78
2021/12/29 02:39:57;;;;;;;;;;;1.10;99.90;;;;;;5048593;28;20029;-77
2021/12/29 02:42:27;;;;;;;17.02;10.68;;;1.20;99.90;;;;;;5049621;28;19909;-78
2021/12/29 02:44:53;;;;;;;15.45;10.70;;;1.10;99.90;;;;;;5049049;28;20394;-77
2021/12/29 02:47:18;;;;;;;;;;;1.20;99.90;;;;;;5050092;28;20041;-78
2021/12/29 02:49:45;;;;;;;13.07;8.98;;;1.20;99.90;;;;;;5049605;28;19940;-78
2021/12/29 02:52:14;;;;;;;12.77;9.30;;;1.10;99.90;;;;;;5048781;28;20029;-78
2021/12/29 02:54:40;;;;;;;10.63;7.57;;;1.20;99.90;;;;;;5050167;28;20021;-78
2021/12/29 02:57:06;;;;;;;12.38;8.48;;;1.20;99.90;;;;;;5048997;28;20021;-77
2021/12/29 02:59:32;;;;;;;12.00;8.00;;;1.20;99.90;;;;;;5046985;28;20127;-77
2021/12/29 03:01:58;;;;;;;9.38;6.57;;;1.20;99.90;;;;;;5047460;28;20021;-78
2021/12/29 03:04:23;;;;;;;;;;;1.30;99.90;;;;;;5048039;28;20044;-77
2021/12/29 03:06:49;;;;;;;10.85;7.55;;;1.30;99.90;;;;;;5047982;28;19921;-78
2021/12/29 03:09:18;;;;;;;;;;;1.30;99.90;;;;;;5047869;28;20064;-77
2021/12/29 03:11:46;;;;;;;16.88;10.52;;;1.30;99.90;;;;;;5047643;28;20297;-77
2021/12/29 03:14:12;;;;;;;17.75;11.43;;;1.20;99.90;;;;;;5049474;28;20032;-77
2021/12/29 03:16:38;;;;;;;18.65;11.43;;;1.20;99.90;;;;;;5048732;28;20033;-77
2021/12/29 03:19:04;;;;;;;;;;;1.30;99.90;;;;;;5048685;28;20799;-77
2021/12/29 03:21:32;;;;;;;19.00;12.05;;;1.30;99.90;;;;;;5053398;28;20534;-78
2021/12/29 03:23:58;;;;;;;19.88;12.35;;;1.30;99.90;;;;;;5048129;28;20513;-77
2021/12/29 03:26:23;;;;;;;;;;;1.30;99.90;;;;;;5046921;28;20053;-77
2021/12/29 03:28:49;;;;;;;23.45;12.25;;;1.30;99.90;;;;;;5047402;28;19920;-77
2021/12/29 03:31:17;;;;;;;;;;;1.20;99.90;;;;;;5048525;28;20033;-77
2021/12/29 03:33:44;;;;;;;20.15;12.45;;;1.20;99.90;;;;;;5048148;28;19989;-79
2021/12/29 03:36:11;;;;;;;20.20;13.10;;;1.30;99.90;;;;;;5051058;28;20035;-78
2021/12/29 03:38:39;;;;;;;16.27;11.05;;;1.20;99.90;;;;;;5049483;28;20037;-78
2021/12/29 03:41:07;;;;;;;16.13;10.93;;;1.20;99.90;;;;;;5048961;28;20047;-78
2021/12/29 03:43:34;;;;;;;16.40;10.65;;;1.20;99.90;;;;;;5048394;28;20029;-78
2021/12/29 03:46:02;;;;;;;16.90;9.70;;;1.20;99.90;;;;;;5049440;28;20116;-77
2021/12/29 03:48:29;;;;;;;15.13;10.82;;;1.20;99.90;;;;;;5049047;28;20029;-77
2021/12/29 03:50:56;;;;;;;15.80;11.50;;;1.20;99.90;;;;;;5047386;28;20057;-77
2021/12/29 03:53:21;;;;;;;14.15;10.15;;;1.10;99.90;;;;;;5047692;28;20040;-77
2021/12/29 03:55:50;;;;;;;;;;;1.20;99.90;;;;;;5048354;28;20033;-78
2021/12/29 03:58:20;;;;;;;14.80;9.82;;;1.20;99.90;;;;;;5049506;28;19905;-78
2021/12/29 04:00:48;;;;;;;16.85;10.98;;;1.20;99.90;;;;;;5047934;28;20025;-78
2021/12/29 04:03:14;;;;;;;18.77;13.18;;;1.20;99.90;;;;;;5049069;28;20033;-77
2021/12/29 04:05:40;;;;;;;17.33;10.73;;;1.20;99.90;;;;;;5049932;28;20102;-77
2021/12/29 04:08:05;;;;;;;;;;;1.20;99.90;;;;;;5052575;28;20017;-78
2021/12/29 04:10:32;;;;;;;15.90;10.32;;;1.20;99.90;;;;;;5050989;28;19995;-77
2021/12/29 04:12:59;;;;;;;17.55;11.93;;;1.20;99.90;;;;;;5051489;28;20029;-78
2021/12/29 04:15:25;;;;;;;18.25;10.23;;;1.20;99.90;;;;;;5052140;28;20060;-77
2021/12/29 04:17:51;;;;;;;18.98;12.18;;;1.10;99.90;;;;;;5051477;28;20489;-78
2021/12/29 04:23:07;;;;;;;21.70;14.60;;;1.10;99.90;;;;;;5054095;28;20090;-78
2021/12/29 04:25:38;;;;;;;31.35;18.38;;;1.20;99.90;;;;;;5049979;28;20106;-78
2021/12/29 04:28:14;;;;;;;34.70;19.30;;;1.10;99.90;;;;;;5051937;28;20508;-77
2021/12/29 04:30:40;;;;;;;;;;;1.20;99.90;;;;;;5052499;28;20029;-77
2021/12/29 04:33:05;;;;;;;27.42;16.38;;;1.10;99.90;;;;;;5050586;28;19909;-78
2021/12/29 04:35:32;;;;;;;23.08;14.35;;;1.10;99.90;;;;;;5052270;28;20048;-77
2021/12/29 04:37:58;;;;;;;22.08;13.02;;;1.10;99.90;;;;;;5050630;28;20033;-77
2021/12/29 04:40:23;;;;;;;;;;;1.20;99.90;;;;;;5052723;28;20481;-77
2021/12/29 04:42:49;;;;;;;34.15;20.38;;;1.20;99.90;;;;;;5051880;28;19911;-77
2021/12/29 04:45:15;;;;;;;;;;;1.20;99.90;;;;;;5057560;28;20033;-79
2021/12/29 04:47:43;;;;;;;31.00;17.25;;;1.20;99.90;;;;;;5054813;28;19911;-77
2021/12/29 04:50:23;;;;;;;42.40;25.15;;;1.20;99.90;;;;;;5059271;28;20036;-77
2021/12/29 04:52:49;;;;;;;38.25;22.05;;;1.20;99.90;;;;;;5061687;28;20036;-79
2021/12/29 04:55:15;;;;;;;;;;;1.20;99.90;;;;;;5054398;28;20047;-78
2021/12/29 04:57:40;;;;;;;28.05;16.92;;;1.20;99.90;;;;;;5054977;28;19905;-78
2021/12/29 05:00:06;;;;;;;;;;;1.10;99.90;;;;;;5055546;28;20025;-78
2021/12/29 05:02:32;;;;;;;25.02;15.27;;;1.20;99.90;;;;;;5054923;28;19912;-78
2021/12/29 05:05:02;;;;;;;;;;;1.10;99.90;;;;;;5057058;28;20024;-78
2021/12/29 05:10:12;;;;;;;28.75;16.92;;;1.20;99.90;;;;;;5055841;28;20036;-77
2021/12/29 05:12:37;;;;;;;;;;;1.20;99.90;;;;;;5056609;28;20404;-77
2021/12/29 05:15:04;;;;;;;27.55;14.68;;;1.20;99.90;;;;;;5056391;28;19913;-78
2021/12/29 05:17:30;;;;;;;23.90;14.23;;;1.20;99.90;;;;;;5055989;28;20037;-78
2021/12/29 05:19:56;;;;;;;;;;;1.10;99.90;;;;;;5054543;28;20086;-78
2021/12/29 05:22:22;;;;;;;27.90;15.52;;;1.10;99.90;;;;;;5054054;28;19948;-78
2021/12/29 05:24:47;;;;;;;29.25;17.08;;;1.10;99.90;;;;;;5053201;28;20033;-77
2021/12/29 05:27:13;;;;;;;;;;;1.10;99.90;;;;;;5053163;28;20503;-77
2021/12/29 05:29:38;;;;;;;36.92;19.17;;;1.10;99.90;;;;;;5049197;28;19909;-77
2021/12/29 05:32:04;;;;;;;;;;;1.00;99.90;;;;;;5050874;28;20061;-78
2021/12/29 05:34:30;;;;;;;38.55;20.05;;;1.10;99.90;;;;;;5051538;28;19912;-77
2021/12/29 05:36:55;;;;;;;;;;;1.00;99.90;;;;;;5051386;28;20024;-77
2021/12/29 05:39:21;;;;;;;47.13;22.23;;;1.00;99.90;;;;;;5051542;28;19905;-77
2021/12/29 05:41:46;;;;;;;;;;;1.10;99.90;;;;;;5051651;28;20064;-78
2021/12/29 05:44:12;;;;;;;50.50;22.25;;;1.00;99.90;;;;;;5051258;28;19999;-78
2021/12/29 05:46:38;;;;;;;;;;;1.10;99.90;;;;;;5052756;28;20386;-78
2021/12/29 05:49:03;;;;;;;48.80;20.90;;;1.10;99.90;;;;;;5053668;28;19911;-77
2021/12/29 05:51:29;;;;;;;;;;;1.10;99.90;;;;;;5055037;28;20021;-77
2021/12/29 05:53:55;;;;;;;40.53;19.95;;;1.10;99.90;;;;;;5049710;28;19905;-77
2021/12/29 05:56:21;;;;;;;;;;;1.00;99.90;;;;;;5051237;28;20298;-77
2021/12/29 05:58:46;;;;;;;57.05;23.08;;;1.00;99.90;;;;;;5050900;28;19908;-76
2021/12/29 06:01:12;;;;;;;;;;;1.10;99.90;;;;;;5049545;28;20032;-78
2021/12/29 06:03:39;;;;;;;61.53;23.42;;;1.20;99.90;;;;;;5050298;28;19908;-77
2021/12/29 06:06:05;;;;;;;112.78;30.58;;;1.20;99.90;;;;;;5049684;28;20029;-78
2021/12/29 06:08:30;;;;;;;;;;;1.00;99.90;;;;;;5051408;28;20087;-78
2021/12/29 06:10:56;;;;;;;58.25;24.98;;;1.10;99.90;;;;;;5053963;28;19911;-77
2021/12/29 06:13:21;;;;;;;;;;;1.00;99.90;;;;;;5049908;28;20060;-77
2021/12/29 06:15:47;;;;;;;60.65;28.77;;;1.00;99.90;;;;;;5050153;28;19909;-77
2021/12/29 06:18:13;;;;;;;;;;;1.00;99.90;;;;;;5051483;28;20029;-77
2021/12/29 06:20:39;;;;;;;56.17;27.10;;;0.90;99.90;;;;;;5055171;28;19931;-76
2021/12/29 06:23:12;;;;;;;62.72;27.55;;;1.00;99.90;;;;;;5050427;28;20028;-78
2021/12/29 06:25:39;;;;;;;78.78;35.05;;;1.00;99.90;;;;;;5051508;28;20052;-77
2021/12/29 06:28:04;;;;;;;72.63;32.60;;;1.00;99.90;;;;;;5049870;28;20029;-77
2021/12/29 06:30:30;;;;;;;;;;;1.00;99.90;;;;;;5051105;28;20401;-77
2021/12/29 06:32:56;;;;;;;66.28;31.02;;;1.00;99.90;;;;;;5048687;28;19912;-77
2021/12/29 06:35:21;;;;;;;;;;;1.00;99.90;;;;;;5053181;28;20029;-79
2021/12/29 06:37:47;;;;;;;52.80;26.30;;;1.10;99.90;;;;;;5051461;28;19992;-78
2021/12/29 06:40:13;;;;;;;;;;;1.10;99.90;;;;;;5051806;28;20029;-78
2021/12/29 06:42:39;;;;;;;49.45;25.38;;;1.10;99.90;;;;;;5050907;28;19931;-78
2021/12/29 06:45:06;;;;;;;;;;;1.10;99.90;;;;;;5050121;28;20556;-78
2021/12/29 06:47:31;;;;;;;42.00;21.70;;;1.00;99.90;;;;;;5052586;28;19912;-78
2021/12/29 06:49:57;;;;;;;;;;;1.00;99.90;;;;;;5051794;28;20043;-78
2021/12/29 06:52:23;;;;;;;43.50;20.33;;;1.00;99.90;;;;;;5050794;28;19908;-79
2021/12/29 06:54:48;;;;;;;;;;;0.90;99.90;;;;;;5051145;28;20021;-78
2021/12/29 06:57:14;;;;;;;33.00;18.25;;;0.90;99.90;;;;;;5051681;28;20359;-78
2021/12/29 06:59:40;;;;;;;;;;;0.90;99.90;;;;;;5052977;28;20067;-78
2021/12/29 07:02:05;;;;;;;44.50;21.38;;;0.90;99.90;;;;;;5052325;28;19905;-77
2021/12/29 07:04:31;;;;;;;;;;;0.80;99.90;;;;;;5052224;28;20092;-78
2021/12/29 07:06:57;;;;;;;117.47;43.28;;;0.80;99.90;;;;;;5051110;28;19913;-78
2021/12/29 07:09:24;;;;;;;79.93;37.20;;;0.90;99.90;;;;;;5052034;28;20033;-78
2021/12/29 07:11:50;;;;;;;129.07;46.42;;;0.90;99.90;;;;;;5053600;28;20028;-77
2021/12/29 07:14:16;;;;;;;97.93;34.75;;;0.90;99.90;;;;;;5053018;28;20371;-78
2021/12/29 07:16:44;;;;;;;;;;;0.90;99.90;;;;;;5054699;28;20032;-77
2021/12/29 07:19:11;;;;;;;69.47;27.38;;;0.90;99.90;;;;;;5051447;28;19967;-78
2021/12/29 07:21:36;;;;;;;61.80;26.70;;;1.00;99.90;;;;;;5053962;28;20028;-78
2021/12/29 07:24:02;;;;;;;;;;;1.00;99.90;;;;;;5055559;28;20037;-79
2021/12/29 07:26:28;;;;;;;48.72;21.40;;;1.00;99.90;;;;;;5054101;28;19925;-78
2021/12/29 07:28:53;;;;;;;;;;;1.10;99.90;;;;;;5054984;28;20074;-78
2021/12/29 07:31:20;;;;;;;119.95;57.33;;;1.10;99.90;;;;;;5051770;28;19943;-78
2021/12/29 07:33:46;;;;;;;100.15;34.13;;;1.10;99.90;;;;;;5051012;28;20037;-78
2021/12/29 07:36:12;;;;;;;72.03;40.70;;;1.10;99.90;;;;;;5051536;28;20025;-77
2021/12/29 07:38:41;;;;;;;;;;;1.10;99.90;;;;;;5053506;28;20033;-77
2021/12/29 07:41:09;;;;;;;74.78;31.27;;;1.10;99.90;;;;;;5051243;28;20574;-78
2021/12/29 07:43:38;;;;;;;98.35;42.53;;;1.10;99.90;;;;;;5051829;28;20044;-78
2021/12/29 07:46:04;;;;;;;86.60;31.77;;;1.10;99.90;;;;;;5051494;28;20060;-77
2021/12/29 07:48:31;;;;;;;51.22;26.25;;;1.10;99.90;;;;;;5059067;28;20079;-78
2021/12/29 07:51:03;;;;;;;48.72;22.90;;;1.20;99.90;;;;;;5056296;28;20025;-79
2021/12/29 07:53:29;;;;;;;41.92;20.35;;;1.20;99.90;;;;;;5049427;28;20029;-77
2021/12/29 07:55:55;;;;;;;;;;;1.20;99.90;;;;;;5050046;28;20031;-77
2021/12/29 07:58:22;;;;;;;113.40;18.88;;;1.20;99.90;;;;;;5049377;28;19939;-78
2021/12/29 08:00:49;;;;;;;147.88;24.92;;;1.30;99.90;;;;;;5050482;28;20037;-78
2021/12/29 08:03:15;;;;;;;63.85;23.33;;;1.30;99.90;;;;;;5050390;28;20052;-79
2021/12/29 08:05:41;;;;;;;;;;;1.30;99.90;;;;;;5051420;28;20049;-78
2021/12/29 08:08:07;;;;;;;34.47;16.98;;;1.30;99.90;;;;;;5051256;28;20373;-79
2021/12/29 08:10:33;;;;;;;;;;;1.40;99.90;;;;;;5050342;28;20096;-78
2021/12/29 08:12:58;;;;;;;129.55;13.85;;;1.40;99.90;;;;;;5048704;28;19913;-78
2021/12/29 08:15:24;;;;;;;;;;;1.50;99.90;;;;;;5049484;28;20513;-77
2021/12/29 08:17:50;;;;;;;58.40;18.05;;;1.50;99.90;;;;;;5049020;28;19987;-78
2021/12/29 08:20:15;;;;;;;;;;;1.60;99.90;;;;;;5051440;28;20509;-78
2021/12/29 08:22:41;;;;;;;47.70;23.40;;;1.60;99.90;;;;;;5049286;28;19944;-78
2021/12/29 08:25:07;;;;;;;;;;;1.60;99.90;;;;;;5052558;28;20190;-78
2021/12/29 08:27:33;;;;;;;53.47;19.42;;;1.70;99.90;;;;;;5053802;28;19913;-77
2021/12/29 08:29:59;;;;;;;;;;;1.80;99.90;;;;;;5051883;28;20535;-76
2021/12/29 08:32:26;;;;;;;30.77;13.20;;;1.90;99.90;;;;;;5052872;28;19915;-78
2021/12/29 08:34:52;;;;;;;32.00;12.65;;;1.90;99.90;;;;;;5051385;28;20425;-77
2021/12/29 08:37:18;;;;;;;31.27;14.07;;;2.10;99.90;;;;;;5051826;28;20025;-79
2021/12/29 08:39:44;;;;;;;;;;;2.00;99.90;;;;;;5052025;28;20047;-77
2021/12/29 08:42:10;;;;;;;21.33;13.00;;;1.90;99.90;;;;;;5049335;28;19911;-79
2021/12/29 08:44:36;;;;;;;25.00;14.27;;;1.80;99.90;;;;;;5050503;28;20028;-77
2021/12/29 08:47:01;;;;;;;;;;;1.90;99.90;;;;;;5052962;28;20091;-77
2021/12/29 08:49:27;;;;;;;29.73;17.13;;;2.00;99.90;;;;;;5051066;28;20018;-78
2021/12/29 08:51:52;;;;;;;;;;;2.00;99.90;;;;;;5052646;28;20057;-78
2021/12/29 08:54:18;;;;;;;36.95;24.17;;;2.10;99.90;;;;;;5051994;28;19915;-78
2021/12/29 08:56:51;;;;;;;;;;;2.20;99.90;;;;;;5052813;28;20041;-77
2021/12/29 08:59:17;;;;;;;41.05;24.33;;;2.20;99.90;;;;;;5053170;28;19958;-78
2021/12/29 09:01:43;;;;;;;;;;;2.30;99.90;;;;;;5055533;28;20428;-77
2021/12/29 09:04:08;;;;;;;25.65;15.35;;;2.30;99.90;;;;;;5055408;28;19909;-79
2021/12/29 09:06:34;;;;;;;;;;;2.40;99.90;;;;;;5054124;28;20052;-78
2021/12/29 09:09:00;;;;;;;24.77;15.90;;;2.40;99.90;;;;;;5054469;28;19948;-78
2021/12/29 09:11:26;;;;;;;24.83;15.02;;;2.50;99.90;;;;;;5055092;28;20032;-78
2021/12/29 09:13:53;;;;;;;;;;;2.50;99.90;;;;;;5055807;28;20025;-78
2021/12/29 09:16:19;;;;;;;31.25;19.13;;;2.60;99.90;;;;;;5053857;28;19995;-79
2021/12/29 09:18:45;;;;;;;;;;;2.60;99.90;;;;;;5063338;28;20029;-79
2021/12/29 09:21:14;;;;;;;38.70;22.67;;;2.60;99.90;;;;;;5051437;28;19904;-77
2021/12/29 09:23:41;;;;;;;53.15;26.60;;;2.70;99.90;;;;;;5052190;28;20029;-78
2021/12/29 09:26:19;;;;;;;46.83;27.88;;;2.70;99.90;;;;;;5049786;28;20602;-78
2021/12/29 09:28:52;;;;;;;34.15;19.73;;;2.70;99.90;;;;;;5049122;28;20283;-77
2021/12/29 09:31:19;;;;;;;31.52;20.92;;;2.60;99.90;;;;;;5048768;28;20037;-78
2021/12/29 09:33:46;;;;;;;28.35;17.17;;;2.70;99.90;;;;;;5050239;28;20332;-78
2021/12/29 09:36:12;;;;;;;31.65;18.60;;;2.70;99.90;;;;;;5052111;28;20021;-78
2021/12/29 09:38:40;;;;;;;47.53;29.00;;;2.70;99.90;;;;;;5058603;28;20147;-79
2021/12/29 09:41:14;;;;;;;43.20;25.02;;;2.60;99.90;;;;;;5056084;28;20473;-78
2021/12/29 09:43:41;;;;;;;30.02;19.02;;;2.60;99.90;;;;;;5055475;28;20511;-80
2021/12/29 09:46:07;;;;;;;32.85;19.17;;;2.70;99.90;;;;;;5050429;28;20465;-77
2021/12/29 09:48:35;;;;;;;32.90;18.75;;;2.70;99.90;;;;;;5049985;28;20064;-77
2021/12/29 09:51:01;;;;;;;35.40;19.67;;;2.70;99.90;;;;;;5049354;28;20219;-78
2021/12/29 09:53:27;;;;;;;43.75;24.50;;;2.80;99.90;;;;;;5049091;28;20033;-78
2021/12/29 09:55:53;;;;;;;;;;;2.80;99.90;;;;;;5051737;28;20679;-78
2021/12/29 09:58:19;;;;;;;79.10;49.00;;;2.80;99.90;;;;;;5048680;28;19944;-78
2021/12/29 10:00:50;;;;;;;37.88;21.65;;;2.70;99.90;;;;;;5052025;28;20492;-78
2021/12/29 10:03:18;;;;;;;36.50;20.40;;;2.70;99.90;;;;;;5050766;28;20029;-78
2021/12/29 10:05:47;;;;;;;31.42;19.70;;;2.60;99.90;;;;;;5050650;28;20091;-77
2021/12/29 10:08:30;;;;;;;31.67;18.52;;;2.60;99.90;;;;;;5049785;28;20028;-78
2021/12/29 10:11:02;;;;;;;32.25;18.67;;;2.60;99.90;;;;;;5050042;28;20029;-80
2021/12/29 10:13:33;;;;;;;28.80;18.20;;;2.60;99.90;;;;;;5053666;28;20029;-79
2021/12/29 10:16:09;;;;;;;33.47;20.02;;;2.60;99.90;;;;;;5051778;28;20033;-79
2021/12/29 10:18:37;;;;;;;32.47;20.40;;;2.60;99.90;;;;;;5050768;28;20052;-78
2021/12/29 10:21:17;;;;;;;35.05;20.55;;;2.70;99.90;;;;;;5052531;28;20120;-80
2021/12/29 10:23:46;;;;;;;42.65;23.58;;;2.70;99.90;;;;;;5053593;28;20136;-79
2021/12/29 10:26:16;;;;;;;40.53;22.55;;;2.70;99.90;;;;;;5052792;28;20071;-79
2021/12/29 10:29:00;;;;;;;43.58;26.77;;;2.80;99.90;;;;;;5052161;28;20028;-78
2021/12/29 10:31:38;;;;;;;41.63;26.65;;;2.80;99.90;;;;;;5051658;28;20029;-80
2021/12/29 10:34:13;;;;;;;45.38;27.35;;;2.90;99.90;;;;;;5051710;28;20033;-78
2021/12/29 10:36:48;;;;;;;51.73;30.33;;;2.90;99.90;;;;;;5053072;28;20354;-78
2021/12/29 10:39:34;;;;;;;41.03;24.02;;;2.90;99.90;;;;;;5053718;28;20041;-79
2021/12/29 10:42:09;;;;;;;37.47;21.48;;;2.90;99.90;;;;;;5053069;28;20021;-78
2021/12/29 10:44:48;;;;;;;31.15;18.52;;;2.80;99.90;;;;;;5053395;28;20045;-79
2021/12/29 10:47:21;;;;;;;25.33;16.60;;;2.80;99.90;;;;;;5060950;28;20029;-79
2021/12/29 10:49:59;;;;;;;27.15;18.23;;;2.80;99.90;;;;;;5055008;28;20033;-79
2021/12/29 10:52:38;;;;;;;26.38;17.52;;;2.80;99.90;;;;;;5049086;28;20037;-79
2021/12/29 10:55:31;;;;;;;26.85;17.35;;;2.80;99.90;;;;;;5049471;28;20448;-79
2021/12/29 10:58:14;;;;;;;29.52;17.30;;;2.80;99.90;;;;;;5050674;28;20021;-79
2021/12/29 11:00:43;;;;;;;30.00;18.38;;;2.90;99.90;;;;;;5049206;28;20028;-80
2021/12/29 11:03:16;;;;;;;29.92;18.70;;;2.90;99.90;;;;;;5049030;28;20028;-79
2021/12/29 11:05:48;;;;;;;34.88;20.85;;;3.00;99.90;;;;;;5048496;28;20040;-79
2021/12/29 11:08:15;;;;;;;298.15;139.35;;;3.10;99.90;;;;;;5051037;28;20579;-79
2021/12/29 11:10:41;;;;;;;108.43;53.78;;;3.10;99.90;;;;;;5050441;28;20045;-79
2021/12/29 11:13:09;;;;;;;73.35;39.47;;;3.30;99.90;;;;;;5050796;28;20021;-79
2021/12/29 11:15:41;;;;;;;81.93;52.97;;;3.30;99.90;;;;;;5048736;28;20029;-77
2021/12/29 11:18:10;;;;;;;43.70;26.00;;;3.40;99.90;;;;;;5049797;28;20043;-79
2021/12/29 11:20:36;;;;;;;55.00;35.85;;;3.40;99.90;;;;;;5047945;28;20032;-78
2021/12/29 11:23:11;;;;;;;50.88;31.70;;;3.40;99.90;;;;;;5048276;28;20060;-77
2021/12/29 11:25:38;;;;;;;48.30;30.13;;;3.40;99.90;;;;;;5047102;28;20045;-77
2021/12/29 11:28:05;;;;;;;61.35;38.88;;;3.40;99.90;;;;;;5049527;28;20048;-78
2021/12/29 11:30:39;;;;;;;63.88;38.42;;;3.70;99.90;;;;;;5049503;28;20036;-77
2021/12/29 11:33:10;;;;;;;40.08;25.75;;;3.80;99.90;;;;;;5049968;28;20028;-79
2021/12/29 11:35:44;;;;;;;44.17;28.70;;;3.80;99.90;;;;;;5050057;28;20468;-80
2021/12/29 11:38:15;;;;;;;32.40;21.75;;;3.80;99.90;;;;;;5050730;28;20025;-79
2021/12/29 11:40:45;;;;;;;36.50;22.40;;;3.80;99.90;;;;;;5049310;28;20037;-79
2021/12/29 11:43:13;;;;;;;53.92;31.23;;;3.70;99.90;;;;;;5052583;28;20055;-79
2021/12/29 11:45:41;;;;;;;37.85;23.30;;;3.80;99.90;;;;;;5049020;28;20037;-77
2021/12/29 11:48:10;;;;;;;34.50;22.30;;;3.70;99.90;;;;;;5050536;28;20429;-78
2021/12/29 11:50:39;;;;;;;32.22;21.60;;;3.80;99.90;;;;;;5049345;28;20029;-79
2021/12/29 11:53:26;;;;;;;66.18;42.95;;;3.80;99.90;;;;;;5050132;28;20033;-78
2021/12/29 11:56:04;;;;;;;40.22;24.52;;;3.90;99.90;;;;;;5048632;28;20025;-78
2021/12/29 11:58:41;;;;;;;42.58;28.35;;;4.00;99.90;;;;;;5050687;28;20501;-80
2021/12/29 12:01:09;;;;;;;;;;;4.10;99.90;;;;;;5050625;28;20079;-77
2021/12/29 12:04:10;;;;;;;34.92;22.60;;;4.20;99.90;;;;;;5045934;28;19935;-76
2021/12/29 12:06:41;;;;;;;30.80;20.50;;;4.30;99.90;;;;;;5043828;28;20131;-77
2021/12/29 12:09:14;;;;;;;33.03;21.05;;;4.30;99.90;;;;;;5053082;28;20048;-76
2021/12/29 12:11:49;;;;;;;31.58;21.10;;;4.50;99.90;;;;;;5050799;28;20036;-77
2021/12/29 12:14:20;;;;;;;33.10;21.13;;;4.40;99.90;;;;;;5051891;28;20044;-77
2021/12/29 12:16:58;;;;;;;42.22;24.17;;;4.40;99.90;;;;;;5052060;28;20101;-78
2021/12/29 12:19:28;;;;;;;41.15;25.38;;;4.40;99.90;;;;;;5054346;28;20765;-77
2021/12/29 12:22:02;;;;;;;46.88;28.80;;;4.30;99.90;;;;;;5039329;28;20098;-77
2021/12/29 12:24:28;;;;;;;45.13;28.05;;;4.20;99.90;;;;;;5047993;28;20033;-77
2021/12/29 12:26:59;;;;;;;;;;;4.20;99.90;;;;;;5050529;28;20053;-78
2021/12/29 12:29:29;;;;;;;41.30;25.80;;;4.10;99.90;;;;;;5045740;28;19964;-78
2021/12/29 12:32:02;;;;;;;45.83;26.25;;;4.10;99.90;;;;;;5042425;28;20095;-78
2021/12/29 12:34:28;;;;;;;43.80;26.30;;;4.00;99.90;;;;;;5044463;28;20047;-78
2021/12/29 12:36:53;;;;;;;;;;;4.00;99.90;;;;;;5050011;28;20148;-78
2021/12/29 12:39:21;;;;;;;52.92;29.45;;;3.90;99.90;;;;;;5047130;28;19920;-78
2021/12/29 12:41:49;;;;;;;50.42;29.90;;;3.80;99.90;;;;;;5047185;28;20068;-77
2021/12/29 12:44:19;;;;;;;98.38;58.67;;;3.70;99.90;;;;;;5049274;28;20060;-77
2021/12/29 12:47:10;;;;;;;115.40;67.15;;;3.60;99.90;;;;;;5056107;28;20044;-77
2021/12/29 12:49:56;;;;;;;56.08;33.50;;;3.40;99.90;;;;;;5032083;28;20029;-77
2021/12/29 12:52:26;;;;;;;92.35;51.35;;;3.40;99.90;;;;;;5033021;28;20033;-77
2021/12/29 12:54:54;;;;;;;66.68;38.05;;;3.40;99.90;;;;;;5031357;28;20052;-79
2021/12/29 12:57:30;;;;;;;50.35;28.80;;;3.30;99.90;;;;;;5032266;28;20025;-78
2021/12/29 13:00:13;;;;;;;64.43;32.90;;;3.40;99.90;;;;;;5041085;28;20425;-80
2021/12/29 13:02:52;;;;;;;49.97;30.65;;;3.40;99.90;;;;;;5054422;28;20029;-80
2021/12/29 13:05:37;;;;;;;61.53;33.83;;;3.40;99.90;;;;;;5051675;28;20033;-77
2021/12/29 13:08:13;;;;;;;78.97;42.38;;;3.40;99.90;;;;;;5049932;28;20117;-77
2021/12/29 13:10:48;;;;;;;66.75;37.55;;;3.40;99.90;;;;;;5049795;28;20017;-78
2021/12/29 13:13:18;;;;;;;70.97;38.97;;;3.40;99.90;;;;;;5051696;28;20033;-80
2021/12/29 13:15:58;;;;;;;65.43;36.83;;;3.40;99.90;;;;;;5054022;28;20516;-80
2021/12/29 13:18:25;;;;;;;62.38;36.05;;;3.40;99.90;;;;;;5057502;28;20021;-83